sensor_id;sensor_type;location;lat;lon;timestamp;pressure;altitude;pressure_sealevel;temperature;humidity
69411;BME280;56604;48.652;9.194;2023-11-22T00:02:05;96454.97;;;6.68;100.00
69411;BME280;56604;48.652;9.194;2023-11-22T00:04:31;96462.44;;;6.65;100.00
69411;BME280;56604;48.652;9.194;2023-11-22T00:06:56;96454.63;;;6.65;100.00
69411;BME280;56604;48.652;9.194;2023-11-22T00:09:22;96459.69;;;6.60;100.00
69411;BME280;56604;48.652;9.194;2023-11-22T00:11:48;96460.06;;;6.63;100.00
69411;BME280;56604;48.652;9.194;2023-11-22T00:14:15;96451.81;;;6.66;100.00
69411;BME280;56604;48.652;9.194;2023-11-22T00:16:40;96450.78;;;6.67;100.00
69411;BME280;56604;48.652;9.194;2023-11-22T00:19:06;96445.84;;;6.59;100.00
69411;BME280;56604;48.652;9.194;2023-11-22T00:21:32;96457.06;;;6.60;100.00
69411;BME280;56604;48.652;9.194;2023-11-22T00:23:57;96460.47;;;6.60;100.00
69411;BME280;56604;48.652;9.194;2023-11-22T00:26:23;96463.97;;;6.54;100.00
69411;BME280;56604;48.652;9.194;2023-11-22T00:28:48;96458.09;;;6.59;100.00
69411;BME280;56604;48.652;9.194;2023-11-22T00:31:14;96458.81;;;6.66;100.00
69411;BME280;56604;48.652;9.194;2023-11-22T00:33:40;96454.97;;;6.50;100.00
69411;BME280;56604;48.652;9.194;2023-11-22T00:36:05;96459.34;;;6.56;100.00
69411;BME280;56604;48.652;9.194;2023-11-22T00:38:33;96464.13;;;6.59;100.00
69411;BME280;56604;48.652;9.194;2023-11-22T00:41:01;96474.09;;;6.25;100.00
69411;BME280;56604;48.652;9.194;2023-11-22T00:43:27;96482.75;;;6.01;100.00
69411;BME280;56604;48.652;9.194;2023-11-22T00:45:52;96477.59;;;5.94;100.00
69411;BME280;56604;48.652;9.194;2023-11-22T00:48:18;96491.41;;;5.70;100.00
69411;BME280;56604;48.652;9.194;2023-11-22T00:50:43;96490.81;;;5.68;100.00
69411;BME280;56604;48.652;9.194;2023-11-22T00:53:09;96489.50;;;5.52;100.00
69411;BME280;56604;48.652;9.194;2023-11-22T00:55:34;96492.78;;;5.40;100.00
69411;BME280;56604;48.652;9.194;2023-11-22T00:58:00;96491.06;;;5.28;100.00
69411;BME280;56604;48.652;9.194;2023-11-22T01:00:29;96498.28;;;5.26;100.00
69411;BME280;56604;48.652;9.194;2023-11-22T01:02:54;96499.38;;;5.05;100.00
69411;BME280;56604;48.652;9.194;2023-11-22T01:05:20;96516.28;;;4.82;100.00
69411;BME280;56604;48.652;9.194;2023-11-22T01:07:45;96514.31;;;4.71;100.00
69411;BME280;56604;48.652;9.194;2023-11-22T01:10:10;96518.75;;;4.64;100.00
69411;BME280;56604;48.652;9.194;2023-11-22T01:12:36;96521.19;;;4.59;100.00
69411;BME280;56604;48.652;9.194;2023-11-22T01:15:01;96519.56;;;4.58;100.00
69411;BME280;56604;48.652;9.194;2023-11-22T01:17:26;96527.97;;;4.60;100.00
69411;BME280;56604;48.652;9.194;2023-11-22T01:19:52;96527.38;;;4.51;100.00
69411;BME280;56604;48.652;9.194;2023-11-22T01:22:17;96526.38;;;4.52;100.00
69411;BME280;56604;48.652;9.194;2023-11-22T01:24:42;96532.19;;;4.41;100.00
69411;BME280;56604;48.652;9.194;2023-11-22T01:27:08;96538.44;;;4.33;100.00
69411;BME280;56604;48.652;9.194;2023-11-22T01:29:33;96549.66;;;4.27;100.00
69411;BME280;56604;48.652;9.194;2023-11-22T01:31:59;96548.84;;;4.20;100.00
69411;BME280;56604;48.652;9.194;2023-11-22T01:34:25;96548.22;;;4.18;100.00
69411;BME280;56604;48.652;9.194;2023-11-22T01:36:51;96542.44;;;4.16;100.00
69411;BME280;56604;48.652;9.194;2023-11-22T01:39:16;96552.84;;;4.09;100.00
69411;BME280;56604;48.652;9.194;2023-11-22T01:41:45;96557.66;;;4.05;100.00
69411;BME280;56604;48.652;9.194;2023-11-22T01:44:10;96551.63;;;4.12;100.00
69411;BME280;56604;48.652;9.194;2023-11-22T01:46:36;96555.66;;;4.08;100.00
69411;BME280;56604;48.652;9.194;2023-11-22T01:49:02;96560.84;;;4.14;100.00
69411;BME280;56604;48.652;9.194;2023-11-22T01:51:28;96568.47;;;4.16;100.00
69411;BME280;56604;48.652;9.194;2023-11-22T01:53:55;96572.44;;;4.12;100.00
69411;BME280;56604;48.652;9.194;2023-11-22T01:56:23;96579.66;;;4.16;100.00
69411;BME280;56604;48.652;9.194;2023-11-22T01:58:49;96579.88;;;4.08;100.00
69411;BME280;56604;48.652;9.194;2023-11-22T02:01:15;96586.06;;;4.07;100.00
69411;BME280;56604;48.652;9.194;2023-11-22T02:03:41;96587.25;;;4.11;100.00
69411;BME280;56604;48.652;9.194;2023-11-22T02:06:07;96587.66;;;4.01;100.00
69411;BME280;56604;48.652;9.194;2023-11-22T02:08:34;96589.84;;;3.91;100.00
69411;BME280;56604;48.652;9.194;2023-11-22T02:11:01;96594.66;;;3.88;100.00
69411;BME280;56604;48.652;9.194;2023-11-22T02:13:30;96590.41;;;3.80;100.00
69411;BME280;56604;48.652;9.194;2023-11-22T02:15:56;96605.59;;;3.70;100.00
69411;BME280;56604;48.652;9.194;2023-11-22T02:18:25;96600.38;;;3.70;100.00
69411;BME280;56604;48.652;9.194;2023-11-22T02:20:50;96614.00;;;3.72;100.00
69411;BME280;56604;48.652;9.194;2023-11-22T02:23:16;96605.81;;;3.75;100.00
69411;BME280;56604;48.652;9.194;2023-11-22T02:25:42;96611.56;;;3.64;100.00
69411;BME280;56604;48.652;9.194;2023-11-22T02:28:08;96616.78;;;3.64;100.00
69411;BME280;56604;48.652;9.194;2023-11-22T02:30:34;96615.56;;;3.59;100.00
69411;BME280;56604;48.652;9.194;2023-11-22T02:32:59;96621.75;;;3.58;100.00
69411;BME280;56604;48.652;9.194;2023-11-22T02:35:25;96616.16;;;3.55;100.00
69411;BME280;56604;48.652;9.194;2023-11-22T02:37:52;96625.91;;;3.46;100.00
69411;BME280;56604;48.652;9.194;2023-11-22T02:40:19;96625.69;;;3.41;100.00
69411;BME280;56604;48.652;9.194;2023-11-22T02:42:52;96628.28;;;3.41;100.00
69411;BME280;56604;48.652;9.194;2023-11-22T02:45:22;96627.66;;;3.32;100.00
69411;BME280;56604;48.652;9.194;2023-11-22T02:47:48;96634.41;;;3.20;100.00
69411;BME280;56604;48.652;9.194;2023-11-22T02:50:14;96632.22;;;3.24;100.00
69411;BME280;56604;48.652;9.194;2023-11-22T02:52:40;96635.81;;;3.23;100.00
69411;BME280;56604;48.652;9.194;2023-11-22T02:55:06;96629.81;;;3.22;100.00
69411;BME280;56604;48.652;9.194;2023-11-22T02:57:32;96634.16;;;3.15;100.00
69411;BME280;56604;48.652;9.194;2023-11-22T02:59:58;96636.97;;;3.13;100.00
69411;BME280;56604;48.652;9.194;2023-11-22T03:02:23;96638.16;;;3.11;100.00
69411;BME280;56604;48.652;9.194;2023-11-22T03:04:52;96645.28;;;3.02;100.00
69411;BME280;56604;48.652;9.194;2023-11-22T03:07:17;96647.91;;;3.02;100.00
69411;BME280;56604;48.652;9.194;2023-11-22T03:09:42;96649.25;;;2.98;100.00
69411;BME280;56604;48.652;9.194;2023-11-22T03:12:09;96645.25;;;2.96;100.00
69411;BME280;56604;48.652;9.194;2023-11-22T03:14:36;96650.41;;;2.89;100.00
69411;BME280;56604;48.652;9.194;2023-11-22T03:17:02;96652.38;;;2.87;100.00
69411;BME280;56604;48.652;9.194;2023-11-22T03:19:28;96667.94;;;2.87;100.00
69411;BME280;56604;48.652;9.194;2023-11-22T03:21:53;96670.56;;;2.87;100.00
69411;BME280;56604;48.652;9.194;2023-11-22T03:24:21;96687.03;;;2.73;100.00
69411;BME280;56604;48.652;9.194;2023-11-22T03:26:46;96691.00;;;2.68;100.00
69411;BME280;56604;48.652;9.194;2023-11-22T03:29:14;96688.53;;;2.60;100.00
69411;BME280;56604;48.652;9.194;2023-11-22T03:31:41;96688.16;;;2.63;100.00
69411;BME280;56604;48.652;9.194;2023-11-22T03:34:07;96691.75;;;2.62;100.00
69411;BME280;56604;48.652;9.194;2023-11-22T03:36:32;96694.84;;;2.51;100.00
69411;BME280;56604;48.652;9.194;2023-11-22T03:38:58;96695.59;;;2.45;100.00
69411;BME280;56604;48.652;9.194;2023-11-22T03:41:23;96708.31;;;2.40;100.00
69411;BME280;56604;48.652;9.194;2023-11-22T03:43:49;96703.50;;;2.37;100.00
69411;BME280;56604;48.652;9.194;2023-11-22T03:46:14;96709.06;;;2.34;100.00
69411;BME280;56604;48.652;9.194;2023-11-22T03:48:39;96718.13;;;2.44;100.00
69411;BME280;56604;48.652;9.194;2023-11-22T03:51:05;96718.69;;;2.40;100.00
69411;BME280;56604;48.652;9.194;2023-11-22T03:53:30;96724.00;;;2.32;100.00
69411;BME280;56604;48.652;9.194;2023-11-22T03:55:56;96726.97;;;2.29;100.00
69411;BME280;56604;48.652;9.194;2023-11-22T03:58:21;96733.38;;;2.33;100.00
69411;BME280;56604;48.652;9.194;2023-11-22T04:00:47;96748.81;;;2.19;100.00
69411;BME280;56604;48.652;9.194;2023-11-22T04:03:12;96748.31;;;2.09;100.00
69411;BME280;56604;48.652;9.194;2023-11-22T04:05:38;96746.69;;;2.08;100.00
69411;BME280;56604;48.652;9.194;2023-11-22T04:08:03;96745.44;;;2.04;100.00
69411;BME280;56604;48.652;9.194;2023-11-22T04:10:29;96750.47;;;2.06;100.00
69411;BME280;56604;48.652;9.194;2023-11-22T04:12:54;96755.44;;;2.07;100.00
69411;BME280;56604;48.652;9.194;2023-11-22T04:15:19;96753.47;;;2.09;100.00
69411;BME280;56604;48.652;9.194;2023-11-22T04:17:45;96762.44;;;2.07;100.00
69411;BME280;56604;48.652;9.194;2023-11-22T04:20:11;96760.03;;;2.05;99.64
69411;BME280;56604;48.652;9.194;2023-11-22T04:22:41;96767.81;;;2.05;99.53
69411;BME280;56604;48.652;9.194;2023-11-22T04:25:06;96761.91;;;2.11;99.25
69411;BME280;56604;48.652;9.194;2023-11-22T04:27:34;96778.41;;;2.10;98.45
69411;BME280;56604;48.652;9.194;2023-11-22T04:29:59;96772.34;;;2.18;99.28
69411;BME280;56604;48.652;9.194;2023-11-22T04:32:25;96784.66;;;2.16;98.37
69411;BME280;56604;48.652;9.194;2023-11-22T04:34:50;96775.13;;;2.16;97.29
69411;BME280;56604;48.652;9.194;2023-11-22T04:37:16;96785.50;;;2.16;97.20
69411;BME280;56604;48.652;9.194;2023-11-22T04:39:41;96798.81;;;2.13;95.35
69411;BME280;56604;48.652;9.194;2023-11-22T04:42:06;96790.16;;;2.06;94.02
69411;BME280;56604;48.652;9.194;2023-11-22T04:44:31;96792.91;;;2.05;95.71
69411;BME280;56604;48.652;9.194;2023-11-22T04:47:00;96788.19;;;2.08;95.42
69411;BME280;56604;48.652;9.194;2023-11-22T04:49:25;96790.78;;;2.08;94.32
69411;BME280;56604;48.652;9.194;2023-11-22T04:51:51;96783.72;;;2.02;95.20
69411;BME280;56604;48.652;9.194;2023-11-22T04:54:16;96785.69;;;2.00;94.83
69411;BME280;56604;48.652;9.194;2023-11-22T04:56:42;96792.47;;;2.01;93.36
69411;BME280;56604;48.652;9.194;2023-11-22T04:59:07;96802.06;;;2.00;94.02
69411;BME280;56604;48.652;9.194;2023-11-22T05:01:33;96811.63;;;2.00;92.99
69411;BME280;56604;48.652;9.194;2023-11-22T05:03:58;96809.63;;;2.02;92.30
69411;BME280;56604;48.652;9.194;2023-11-22T05:06:24;96803.66;;;2.01;92.32
69411;BME280;56604;48.652;9.194;2023-11-22T05:08:50;96808.03;;;2.01;92.57
69411;BME280;56604;48.652;9.194;2023-11-22T05:11:15;96824.22;;;2.03;92.96
69411;BME280;56604;48.652;9.194;2023-11-22T05:13:43;96818.78;;;1.98;92.15
69411;BME280;56604;48.652;9.194;2023-11-22T05:16:09;96834.31;;;1.98;92.50
69411;BME280;56604;48.652;9.194;2023-11-22T05:18:34;96835.94;;;1.99;93.49
69411;BME280;56604;48.652;9.194;2023-11-22T05:21:01;96837.56;;;2.00;93.27
69411;BME280;56604;48.652;9.194;2023-11-22T05:23:29;96828.16;;;1.99;93.52
69411;BME280;56604;48.652;9.194;2023-11-22T05:25:54;96834.31;;;1.98;93.29
69411;BME280;56604;48.652;9.194;2023-11-22T05:28:21;96846.28;;;1.99;93.26
69411;BME280;56604;48.652;9.194;2023-11-22T05:30:46;96841.47;;;1.96;93.69
69411;BME280;56604;48.652;9.194;2023-11-22T05:33:11;96851.94;;;2.02;94.28
69411;BME280;56604;48.652;9.194;2023-11-22T05:35:37;96852.31;;;1.99;93.66
69411;BME280;56604;48.652;9.194;2023-11-22T05:38:02;96859.00;;;1.94;93.72
69411;BME280;56604;48.652;9.194;2023-11-22T05:40:28;96859.63;;;1.96;93.40
69411;BME280;56604;48.652;9.194;2023-11-22T05:42:53;96857.50;;;1.99;94.36
69411;BME280;56604;48.652;9.194;2023-11-22T05:45:18;96853.28;;;1.98;92.80
69411;BME280;56604;48.652;9.194;2023-11-22T05:47:43;96861.59;;;1.94;91.73
69411;BME280;56604;48.652;9.194;2023-11-22T05:50:09;96859.63;;;1.96;92.64
69411;BME280;56604;48.652;9.194;2023-11-22T05:52:34;96856.41;;;1.94;92.28
69411;BME280;56604;48.652;9.194;2023-11-22T05:55:00;96859.91;;;1.86;90.49
69411;BME280;56604;48.652;9.194;2023-11-22T05:57:29;96870.91;;;1.88;90.64
69411;BME280;56604;48.652;9.194;2023-11-22T05:59:55;96867.75;;;1.93;92.09
69411;BME280;56604;48.652;9.194;2023-11-22T06:02:20;96869.09;;;1.89;91.57
69411;BME280;56604;48.652;9.194;2023-11-22T06:04:46;96879.47;;;1.89;91.83
69411;BME280;56604;48.652;9.194;2023-11-22T06:07:11;96888.84;;;1.90;91.90
69411;BME280;56604;48.652;9.194;2023-11-22T06:09:36;96880.19;;;1.83;91.19
69411;BME280;56604;48.652;9.194;2023-11-22T06:12:02;96883.31;;;1.93;92.32
69411;BME280;56604;48.652;9.194;2023-11-22T06:14:27;96886.19;;;1.98;92.69
69411;BME280;56604;48.652;9.194;2023-11-22T06:16:53;96894.66;;;1.92;91.84
69411;BME280;56604;48.652;9.194;2023-11-22T06:19:18;96899.50;;;1.95;92.76
69411;BME280;56604;48.652;9.194;2023-11-22T06:21:43;96898.25;;;1.91;92.17
69411;BME280;56604;48.652;9.194;2023-11-22T06:24:09;96904.41;;;1.90;92.37
69411;BME280;56604;48.652;9.194;2023-11-22T06:26:36;96917.00;;;1.93;93.35
69411;BME280;56604;48.652;9.194;2023-11-22T06:29:05;96916.72;;;1.88;91.38
69411;BME280;56604;48.652;9.194;2023-11-22T06:31:30;96921.13;;;1.87;90.87
69411;BME280;56604;48.652;9.194;2023-11-22T06:33:55;96924.78;;;1.93;92.24
69411;BME280;56604;48.652;9.194;2023-11-22T06:36:22;96933.56;;;1.92;92.07
69411;BME280;56604;48.652;9.194;2023-11-22T06:38:47;96929.19;;;1.92;92.20
69411;BME280;56604;48.652;9.194;2023-11-22T06:41:13;96936.50;;;1.89;91.68
69411;BME280;56604;48.652;9.194;2023-11-22T06:43:38;96940.69;;;1.90;92.08
69411;BME280;56604;48.652;9.194;2023-11-22T06:46:04;96942.66;;;1.88;93.19
69411;BME280;56604;48.652;9.194;2023-11-22T06:48:32;96941.25;;;1.85;93.12
69411;BME280;56604;48.652;9.194;2023-11-22T06:50:58;96938.84;;;1.98;94.70
69411;BME280;56604;48.652;9.194;2023-11-22T06:53:23;96935.91;;;2.16;94.50
69411;BME280;56604;48.652;9.194;2023-11-22T06:55:49;96947.97;;;2.39;94.17
69411;BME280;56604;48.652;9.194;2023-11-22T06:58:15;96946.63;;;2.13;93.02
69411;BME280;56604;48.652;9.194;2023-11-22T07:00:42;96953.44;;;2.14;93.59
69411;BME280;56604;48.652;9.194;2023-11-22T07:03:09;96963.25;;;2.04;93.39
69411;BME280;56604;48.652;9.194;2023-11-22T07:05:36;96956.38;;;1.96;92.62
69411;BME280;56604;48.652;9.194;2023-11-22T07:08:02;96955.91;;;1.93;94.25
69411;BME280;56604;48.652;9.194;2023-11-22T07:10:28;96952.00;;;1.97;94.29
69411;BME280;56604;48.652;9.194;2023-11-22T07:12:53;96960.72;;;1.96;94.72
69411;BME280;56604;48.652;9.194;2023-11-22T07:15:19;96962.00;;;2.00;94.62
69411;BME280;56604;48.652;9.194;2023-11-22T07:17:44;96967.06;;;1.93;93.37
69411;BME280;56604;48.652;9.194;2023-11-22T07:20:10;96958.78;;;1.98;94.10
69411;BME280;56604;48.652;9.194;2023-11-22T07:22:41;96965.91;;;1.96;92.71
69411;BME280;56604;48.652;9.194;2023-11-22T07:25:08;96966.28;;;1.93;93.36
69411;BME280;56604;48.652;9.194;2023-11-22T07:27:45;96969.16;;;1.98;93.82
69411;BME280;56604;48.652;9.194;2023-11-22T07:30:12;96978.09;;;1.95;94.29
69411;BME280;56604;48.652;9.194;2023-11-22T07:32:38;96974.34;;;1.98;95.06
69411;BME280;56604;48.652;9.194;2023-11-22T07:35:08;96981.13;;;1.99;95.46
69411;BME280;56604;48.652;9.194;2023-11-22T07:37:40;96982.03;;;2.06;96.45
69411;BME280;56604;48.652;9.194;2023-11-22T07:40:08;96997.25;;;2.09;98.17
69411;BME280;56604;48.652;9.194;2023-11-22T07:42:37;97002.44;;;2.09;97.84
69411;BME280;56604;48.652;9.194;2023-11-22T07:45:04;97006.63;;;2.10;97.75
69411;BME280;56604;48.652;9.194;2023-11-22T07:47:29;97014.06;;;2.13;97.76
69411;BME280;56604;48.652;9.194;2023-11-22T07:49:55;97024.84;;;2.02;98.02
69411;BME280;56604;48.652;9.194;2023-11-22T07:52:24;97022.78;;;1.97;97.38
69411;BME280;56604;48.652;9.194;2023-11-22T07:54:56;97028.78;;;1.98;97.30
69411;BME280;56604;48.652;9.194;2023-11-22T07:57:22;97028.13;;;1.96;96.65
69411;BME280;56604;48.652;9.194;2023-11-22T07:59:48;97026.59;;;1.87;96.63
69411;BME280;56604;48.652;9.194;2023-11-22T08:02:13;97023.84;;;1.88;96.51
69411;BME280;56604;48.652;9.194;2023-11-22T08:04:39;97017.78;;;1.96;96.20
69411;BME280;56604;48.652;9.194;2023-11-22T08:07:05;97020.38;;;1.96;95.53
69411;BME280;56604;48.652;9.194;2023-11-22T08:09:30;97019.88;;;1.77;95.54
69411;BME280;56604;48.652;9.194;2023-11-22T08:12:00;97025.34;;;1.83;94.86
69411;BME280;56604;48.652;9.194;2023-11-22T08:14:29;97021.13;;;1.82;95.42
69411;BME280;56604;48.652;9.194;2023-11-22T08:16:55;97032.19;;;1.75;94.88
69411;BME280;56604;48.652;9.194;2023-11-22T08:19:21;97025.75;;;1.71;94.64
69411;BME280;56604;48.652;9.194;2023-11-22T08:21:49;97020.03;;;1.76;95.38
69411;BME280;56604;48.652;9.194;2023-11-22T08:24:14;97028.63;;;1.76;94.85
69411;BME280;56604;48.652;9.194;2023-11-22T08:26:40;97034.72;;;1.84;94.64
69411;BME280;56604;48.652;9.194;2023-11-22T08:29:05;97027.59;;;1.86;95.54
69411;BME280;56604;48.652;9.194;2023-11-22T08:31:32;97028.75;;;1.83;94.94
69411;BME280;56604;48.652;9.194;2023-11-22T08:33:59;97035.44;;;1.77;94.51
69411;BME280;56604;48.652;9.194;2023-11-22T08:36:25;97028.06;;;1.66;93.19
69411;BME280;56604;48.652;9.194;2023-11-22T08:38:50;97032.19;;;1.75;93.81
69411;BME280;56604;48.652;9.194;2023-11-22T08:41:15;97034.16;;;1.73;93.85
69411;BME280;56604;48.652;9.194;2023-11-22T08:43:41;97043.16;;;1.63;93.40
69411;BME280;56604;48.652;9.194;2023-11-22T08:46:07;97038.06;;;1.69;93.95
69411;BME280;56604;48.652;9.194;2023-11-22T08:48:33;97041.31;;;1.71;93.80
69411;BME280;56604;48.652;9.194;2023-11-22T08:51:00;97045.59;;;1.56;93.17
69411;BME280;56604;48.652;9.194;2023-11-22T08:53:26;97049.94;;;1.64;93.30
69411;BME280;56604;48.652;9.194;2023-11-22T08:55:51;97038.78;;;1.63;94.60
69411;BME280;56604;48.652;9.194;2023-11-22T08:58:20;97038.81;;;1.55;94.64
69411;BME280;56604;48.652;9.194;2023-11-22T09:00:45;97048.69;;;1.60;95.33
69411;BME280;56604;48.652;9.194;2023-11-22T09:03:11;97043.91;;;1.71;94.51
69411;BME280;56604;48.652;9.194;2023-11-22T09:05:44;97048.19;;;1.79;94.56
69411;BME280;56604;48.652;9.194;2023-11-22T09:08:11;97047.75;;;1.75;93.87
69411;BME280;56604;48.652;9.194;2023-11-22T09:10:40;97047.03;;;1.82;93.60
69411;BME280;56604;48.652;9.194;2023-11-22T09:13:07;97038.81;;;1.78;94.16
69411;BME280;56604;48.652;9.194;2023-11-22T09:15:33;97032.44;;;1.89;94.09
69411;BME280;56604;48.652;9.194;2023-11-22T09:18:00;97030.78;;;1.88;94.33
69411;BME280;56604;48.652;9.194;2023-11-22T09:20:26;97034.16;;;1.73;92.22
69411;BME280;56604;48.652;9.194;2023-11-22T09:22:53;97032.78;;;1.86;93.58
69411;BME280;56604;48.652;9.194;2023-11-22T09:25:26;97035.06;;;1.80;93.19
69411;BME280;56604;48.652;9.194;2023-11-22T09:27:56;97039.41;;;1.88;92.54
69411;BME280;56604;48.652;9.194;2023-11-22T09:30:26;97041.50;;;1.85;92.67
69411;BME280;56604;48.652;9.194;2023-11-22T09:33:07;97044.41;;;1.90;92.79
69411;BME280;56604;48.652;9.194;2023-11-22T09:35:34;97037.97;;;1.86;92.03
69411;BME280;56604;48.652;9.194;2023-11-22T09:38:05;97043.16;;;1.86;92.27
69411;BME280;56604;48.652;9.194;2023-11-22T09:40:34;97045.56;;;1.87;92.16
69411;BME280;56604;48.652;9.194;2023-11-22T09:43:01;97044.19;;;1.99;93.41
69411;BME280;56604;48.652;9.194;2023-11-22T09:45:28;97043.34;;;1.99;92.46
69411;BME280;56604;48.652;9.194;2023-11-22T09:47:58;97049.94;;;1.87;93.13
69411;BME280;56604;48.652;9.194;2023-11-22T09:53:31;97058.34;;;1.89;92.28
69411;BME280;56604;48.652;9.194;2023-11-22T09:55:58;97074.47;;;1.99;92.31
69411;BME280;56604;48.652;9.194;2023-11-22T09:58:23;97074.41;;;2.07;91.76
69411;BME280;56604;48.652;9.194;2023-11-22T10:00:50;97082.53;;;2.04;92.24
69411;BME280;56604;48.652;9.194;2023-11-22T10:03:17;97078.22;;;1.96;91.94
69411;BME280;56604;48.652;9.194;2023-11-22T10:05:43;97083.81;;;2.08;91.99
69411;BME280;56604;48.652;9.194;2023-11-22T10:08:09;97093.94;;;2.18;92.19
69411;BME280;56604;48.652;9.194;2023-11-22T10:10:37;97098.84;;;2.13;90.82
69411;BME280;56604;48.652;9.194;2023-11-22T10:13:03;97098.78;;;2.21;91.55
69411;BME280;56604;48.652;9.194;2023-11-22T10:15:28;97099.16;;;2.33;92.14
69411;BME280;56604;48.652;9.194;2023-11-22T10:17:58;97097.84;;;2.37;92.09
69411;BME280;56604;48.652;9.194;2023-11-22T10:20:38;97105.88;;;2.42;91.39
69411;BME280;56604;48.652;9.194;2023-11-22T10:23:10;97103.38;;;2.34;91.59
69411;BME280;56604;48.652;9.194;2023-11-22T10:25:54;97094.25;;;2.38;91.30
69411;BME280;56604;48.652;9.194;2023-11-22T10:28:20;97092.38;;;2.46;91.73
69411;BME280;56604;48.652;9.194;2023-11-22T10:30:46;97089.19;;;2.59;91.48
69411;BME280;56604;48.652;9.194;2023-11-22T10:33:14;97086.44;;;2.23;89.06
69411;BME280;56604;48.652;9.194;2023-11-22T10:35:44;97090.81;;;2.22;90.04
69411;BME280;56604;48.652;9.194;2023-11-22T10:38:12;97084.22;;;2.35;90.99
69411;BME280;56604;48.652;9.194;2023-11-22T10:40:38;97090.84;;;2.37;90.94
69411;BME280;56604;48.652;9.194;2023-11-22T10:43:03;97095.19;;;2.45;89.85
69411;BME280;56604;48.652;9.194;2023-11-22T10:45:30;97097.84;;;2.37;89.76
69411;BME280;56604;48.652;9.194;2023-11-22T10:48:00;97091.72;;;2.30;90.23
69411;BME280;56604;48.652;9.194;2023-11-22T10:50:25;97089.13;;;2.30;90.95
69411;BME280;56604;48.652;9.194;2023-11-22T10:52:52;97090.94;;;2.29;90.56
69411;BME280;56604;48.652;9.194;2023-11-22T10:55:21;97094.13;;;2.54;89.52
69411;BME280;56604;48.652;9.194;2023-11-22T10:57:49;97090.66;;;2.39;89.11
69411;BME280;56604;48.652;9.194;2023-11-22T11:00:19;97096.94;;;2.44;90.63
69411;BME280;56604;48.652;9.194;2023-11-22T11:02:54;97102.28;;;2.28;89.52
69411;BME280;56604;48.652;9.194;2023-11-22T11:05:28;97097.50;;;2.40;90.66
69411;BME280;56604;48.652;9.194;2023-11-22T11:08:02;97094.97;;;2.32;89.55
69411;BME280;56604;48.652;9.194;2023-11-22T11:10:39;97103.38;;;2.34;89.17
69411;BME280;56604;48.652;9.194;2023-11-22T11:13:05;97098.72;;;2.44;90.05
69411;BME280;56604;48.652;9.194;2023-11-22T11:15:30;97114.75;;;2.47;89.55
69411;BME280;56604;48.652;9.194;2023-11-22T11:17:56;97108.34;;;2.58;90.66
69411;BME280;56604;48.652;9.194;2023-11-22T11:20:23;97113.09;;;2.69;90.12
69411;BME280;56604;48.652;9.194;2023-11-22T11:22:49;97106.53;;;2.59;87.97
69411;BME280;56604;48.652;9.194;2023-11-22T11:25:16;97113.88;;;2.55;89.29
69411;BME280;56604;48.652;9.194;2023-11-22T11:27:44;97111.84;;;2.51;89.37
69411;BME280;56604;48.652;9.194;2023-11-22T11:33:03;97116.66;;;2.54;89.78
69411;BME280;56604;48.652;9.194;2023-11-22T11:35:57;97113.50;;;2.43;89.66
69411;BME280;56604;48.652;9.194;2023-11-22T11:38:31;97108.31;;;2.43;89.52
69411;BME280;56604;48.652;9.194;2023-11-22T11:41:06;97115.84;;;2.53;89.64
69411;BME280;56604;48.652;9.194;2023-11-22T11:43:43;97109.75;;;2.46;89.42
69411;BME280;56604;48.652;9.194;2023-11-22T11:46:11;97105.47;;;2.53;89.41
69411;BME280;56604;48.652;9.194;2023-11-22T11:48:37;97106.53;;;2.44;89.45
69411;BME280;56604;48.652;9.194;2023-11-22T11:51:02;97109.69;;;2.54;90.14
69411;BME280;56604;48.652;9.194;2023-11-22T11:53:28;97114.97;;;2.61;90.55
69411;BME280;56604;48.652;9.194;2023-11-22T11:55:55;97132.34;;;2.60;88.84
69411;BME280;56604;48.652;9.194;2023-11-22T11:58:22;97134.25;;;2.43;89.70
69411;BME280;56604;48.652;9.194;2023-11-22T12:00:51;97140.25;;;2.44;89.92
69411;BME280;56604;48.652;9.194;2023-11-22T12:03:17;97133.09;;;2.46;90.43
69411;BME280;56604;48.652;9.194;2023-11-22T12:05:46;97140.25;;;2.44;90.56
69411;BME280;56604;48.652;9.194;2023-11-22T12:08:13;97143.03;;;2.42;90.05
69411;BME280;56604;48.652;9.194;2023-11-22T12:10:41;97148.44;;;2.33;90.20
69411;BME280;56604;48.652;9.194;2023-11-22T12:13:06;97154.63;;;2.32;90.83
69411;BME280;56604;48.652;9.194;2023-11-22T12:15:33;97170.94;;;2.40;91.42
69411;BME280;56604;48.652;9.194;2023-11-22T12:17:59;97168.25;;;2.34;90.93
69411;BME280;56604;48.652;9.194;2023-11-22T12:20:26;97167.81;;;2.22;91.64
69411;BME280;56604;48.652;9.194;2023-11-22T12:22:59;97177.03;;;2.24;91.19
69411;BME280;56604;48.652;9.194;2023-11-22T12:25:27;97169.56;;;2.30;90.58
69411;BME280;56604;48.652;9.194;2023-11-22T12:27:56;97180.63;;;2.23;90.10
69411;BME280;56604;48.652;9.194;2023-11-22T12:30:31;97181.81;;;2.13;89.88
69411;BME280;56604;48.652;9.194;2023-11-22T12:33:00;97170.31;;;2.15;89.18
69411;BME280;56604;48.652;9.194;2023-11-22T12:35:27;97183.28;;;2.15;90.18
69411;BME280;56604;48.652;9.194;2023-11-22T12:37:53;97186.16;;;2.20;90.54
69411;BME280;56604;48.652;9.194;2023-11-22T12:40:20;97196.84;;;2.25;89.14
69411;BME280;56604;48.652;9.194;2023-11-22T12:42:50;97192.94;;;2.21;89.53
69411;BME280;56604;48.652;9.194;2023-11-22T12:45:22;97188.50;;;2.30;90.15
69411;BME280;56604;48.652;9.194;2023-11-22T12:47:49;97179.03;;;2.22;90.12
69411;BME280;56604;48.652;9.194;2023-11-22T12:50:34;97179.81;;;2.23;90.80
69411;BME280;56604;48.652;9.194;2023-11-22T12:53:14;97169.59;;;2.21;90.02
69411;BME280;56604;48.652;9.194;2023-11-22T12:55:43;97169.03;;;2.11;89.56
69411;BME280;56604;48.652;9.194;2023-11-22T12:58:10;97165.72;;;2.25;89.93
69411;BME280;56604;48.652;9.194;2023-11-22T13:00:36;97163.91;;;2.26;90.27
69411;BME280;56604;48.652;9.194;2023-11-22T13:03:01;97169.91;;;2.27;89.37
69411;BME280;56604;48.652;9.194;2023-11-22T13:05:27;97157.22;;;2.32;89.64
69411;BME280;56604;48.652;9.194;2023-11-22T13:07:52;97156.03;;;2.19;89.84
69411;BME280;56604;48.652;9.194;2023-11-22T13:10:20;97158.28;;;2.22;89.51
69411;BME280;56604;48.652;9.194;2023-11-22T13:12:51;97170.41;;;2.22;89.82